sensor_id;sensor_type;location;lat;lon;timestamp;P1;durP1;ratioP1;P2;durP2;ratioP2
24090;SDS011;12272;52.426;17.100;2023-02-28T00:02:05;25.33;;;14.50;;
24090;SDS011;12272;52.426;17.100;2023-02-28T00:07:07;28.77;;;13.97;;
24090;SDS011;12272;52.426;17.100;2023-02-28T00:12:10;29.03;;;16.10;;
24090;SDS011;12272;52.426;17.100;2023-02-28T00:17:12;26.33;;;14.03;;
24090;SDS011;12272;52.426;17.100;2023-02-28T00:22:15;26.13;;;13.90;;
24090;SDS011;12272;52.426;17.100;2023-02-28T00:27:19;25.53;;;14.30;;
24090;SDS011;12272;52.426;17.100;2023-02-28T00:32:21;27.17;;;14.60;;
24090;SDS011;12272;52.426;17.100;2023-02-28T00:37:24;24.63;;;13.57;;
24090;SDS011;12272;52.426;17.100;2023-02-28T00:42:27;32.00;;;16.33;;
24090;SDS011;12272;52.426;17.100;2023-02-28T00:47:29;24.40;;;13.50;;
24090;SDS011;12272;52.426;17.100;2023-02-28T00:52:33;21.87;;;12.77;;
24090;SDS011;12272;52.426;17.100;2023-02-28T00:57:36;28.17;;;16.37;;
24090;SDS011;12272;52.426;17.100;2023-02-28T01:02:39;30.33;;;17.00;;
24090;SDS011;12272;52.426;17.100;2023-02-28T01:07:42;29.37;;;14.57;;
24090;SDS011;12272;52.426;17.100;2023-02-28T01:12:44;25.10;;;14.60;;
24090;SDS011;12272;52.426;17.100;2023-02-28T01:17:50;28.17;;;14.77;;
24090;SDS011;12272;52.426;17.100;2023-02-28T01:22:52;29.13;;;14.07;;
24090;SDS011;12272;52.426;17.100;2023-02-28T01:27:55;22.30;;;13.47;;
24090;SDS011;12272;52.426;17.100;2023-02-28T01:32:58;22.60;;;13.37;;
24090;SDS011;12272;52.426;17.100;2023-02-28T01:38:01;23.70;;;13.37;;
24090;SDS011;12272;52.426;17.100;2023-02-28T01:43:23;23.63;;;14.17;;
24090;SDS011;12272;52.426;17.100;2023-02-28T01:48:30;21.07;;;12.07;;
24090;SDS011;12272;52.426;17.100;2023-02-28T01:53:37;25.10;;;13.90;;
24090;SDS011;12272;52.426;17.100;2023-02-28T01:58:46;19.43;;;12.63;;
24090;SDS011;12272;52.426;17.100;2023-02-28T02:03:54;23.73;;;14.50;;
24090;SDS011;12272;52.426;17.100;2023-02-28T02:09:03;20.07;;;12.13;;
24090;SDS011;12272;52.426;17.100;2023-02-28T02:35:49;23.97;;;11.87;;
24090;SDS011;12272;52.426;17.100;2023-02-28T02:41:19;21.80;;;12.47;;
24090;SDS011;12272;52.426;17.100;2023-02-28T02:46:42;25.03;;;13.53;;
24090;SDS011;12272;52.426;17.100;2023-02-28T02:51:47;22.40;;;13.03;;
24090;SDS011;12272;52.426;17.100;2023-02-28T02:56:51;21.77;;;12.70;;
24090;SDS011;12272;52.426;17.100;2023-02-28T03:01:57;19.93;;;12.23;;
24090;SDS011;12272;52.426;17.100;2023-02-28T03:07:02;31.33;;;14.63;;
24090;SDS011;12272;52.426;17.100;2023-02-28T03:12:06;21.60;;;13.60;;
24090;SDS011;12272;52.426;17.100;2023-02-28T03:22:45;33.57;;;16.07;;
24090;SDS011;12272;52.426;17.100;2023-02-28T03:33:28;25.93;;;14.00;;
24090;SDS011;12272;52.426;17.100;2023-02-28T03:38:37;24.30;;;14.13;;
24090;SDS011;12272;52.426;17.100;2023-02-28T03:43:45;24.47;;;14.00;;
24090;SDS011;12272;52.426;17.100;2023-02-28T03:49:18;25.67;;;14.07;;
24090;SDS011;12272;52.426;17.100;2023-02-28T03:54:27;28.57;;;15.37;;
24090;SDS011;12272;52.426;17.100;2023-02-28T03:59:37;23.67;;;13.43;;
24090;SDS011;12272;52.426;17.100;2023-02-28T04:04:45;16.83;;;10.80;;
24090;SDS011;12272;52.426;17.100;2023-02-28T04:09:50;18.23;;;10.40;;
24090;SDS011;12272;52.426;17.100;2023-02-28T04:14:53;15.17;;;9.30;;
24090;SDS011;12272;52.426;17.100;2023-02-28T04:19:56;18.20;;;11.90;;
24090;SDS011;12272;52.426;17.100;2023-02-28T04:24:59;20.37;;;10.97;;
24090;SDS011;12272;52.426;17.100;2023-02-28T04:30:02;22.27;;;11.70;;
24090;SDS011;12272;52.426;17.100;2023-02-28T04:35:05;21.50;;;12.90;;
24090;SDS011;12272;52.426;17.100;2023-02-28T04:40:08;20.43;;;11.30;;
24090;SDS011;12272;52.426;17.100;2023-02-28T04:45:11;25.03;;;13.73;;
24090;SDS011;12272;52.426;17.100;2023-02-28T04:50:14;21.57;;;12.07;;
24090;SDS011;12272;52.426;17.100;2023-02-28T04:55:17;21.10;;;11.70;;
24090;SDS011;12272;52.426;17.100;2023-02-28T05:00:19;20.67;;;11.30;;
24090;SDS011;12272;52.426;17.100;2023-02-28T05:05:22;19.60;;;12.40;;
24090;SDS011;12272;52.426;17.100;2023-02-28T05:10:25;20.13;;;11.37;;
24090;SDS011;12272;52.426;17.100;2023-02-28T05:15:27;19.17;;;11.57;;
24090;SDS011;12272;52.426;17.100;2023-02-28T05:20:30;16.83;;;10.57;;
24090;SDS011;12272;52.426;17.100;2023-02-28T05:25:32;19.93;;;11.40;;
24090;SDS011;12272;52.426;17.100;2023-02-28T05:30:35;16.77;;;11.00;;
24090;SDS011;12272;52.426;17.100;2023-02-28T05:35:38;19.33;;;11.40;;
24090;SDS011;12272;52.426;17.100;2023-02-28T05:40:42;17.97;;;9.77;;
24090;SDS011;12272;52.426;17.100;2023-02-28T05:45:44;19.93;;;12.17;;
24090;SDS011;12272;52.426;17.100;2023-02-28T05:50:47;25.43;;;12.43;;
24090;SDS011;12272;52.426;17.100;2023-02-28T05:55:51;20.23;;;13.07;;
24090;SDS011;12272;52.426;17.100;2023-02-28T06:00:54;21.77;;;13.57;;
24090;SDS011;12272;52.426;17.100;2023-02-28T06:05:56;21.07;;;12.17;;
24090;SDS011;12272;52.426;17.100;2023-02-28T06:11:02;19.53;;;11.67;;
24090;SDS011;12272;52.426;17.100;2023-02-28T06:16:05;26.53;;;14.87;;
24090;SDS011;12272;52.426;17.100;2023-02-28T06:21:08;29.63;;;15.13;;
24090;SDS011;12272;52.426;17.100;2023-02-28T06:26:11;30.87;;;15.73;;
24090;SDS011;12272;52.426;17.100;2023-02-28T06:31:14;31.27;;;13.80;;
24090;SDS011;12272;52.426;17.100;2023-02-28T06:36:18;27.73;;;15.70;;
24090;SDS011;12272;52.426;17.100;2023-02-28T06:41:25;29.80;;;15.90;;
24090;SDS011;12272;52.426;17.100;2023-02-28T06:46:29;34.00;;;19.30;;
24090;SDS011;12272;52.426;17.100;2023-02-28T06:51:32;46.23;;;24.17;;
24090;SDS011;12272;52.426;17.100;2023-02-28T06:56:34;36.47;;;21.77;;
24090;SDS011;12272;52.426;17.100;2023-02-28T07:01:37;44.87;;;24.47;;
24090;SDS011;12272;52.426;17.100;2023-02-28T07:06:40;42.03;;;24.50;;
24090;SDS011;12272;52.426;17.100;2023-02-28T07:11:43;34.57;;;19.67;;
24090;SDS011;12272;52.426;17.100;2023-02-28T07:16:46;30.27;;;17.73;;
24090;SDS011;12272;52.426;17.100;2023-02-28T07:21:48;32.17;;;22.37;;
24090;SDS011;12272;52.426;17.100;2023-02-28T07:26:51;43.63;;;20.87;;
24090;SDS011;12272;52.426;17.100;2023-02-28T07:31:54;22.93;;;13.93;;
24090;SDS011;12272;52.426;17.100;2023-02-28T07:36:56;31.00;;;20.53;;
24090;SDS011;12272;52.426;17.100;2023-02-28T07:41:59;29.67;;;16.10;;
24090;SDS011;12272;52.426;17.100;2023-02-28T07:47:02;41.40;;;19.07;;
24090;SDS011;12272;52.426;17.100;2023-02-28T07:52:05;38.07;;;21.77;;
24090;SDS011;12272;52.426;17.100;2023-02-28T07:57:08;33.57;;;20.17;;
24090;SDS011;12272;52.426;17.100;2023-02-28T08:02:14;36.07;;;20.37;;
24090;SDS011;12272;52.426;17.100;2023-02-28T08:07:18;33.33;;;18.63;;
24090;SDS011;12272;52.426;17.100;2023-02-28T08:12:20;34.77;;;19.63;;
24090;SDS011;12272;52.426;17.100;2023-02-28T08:17:23;38.73;;;22.07;;
24090;SDS011;12272;52.426;17.100;2023-02-28T08:22:25;34.33;;;19.90;;
24090;SDS011;12272;52.426;17.100;2023-02-28T08:27:28;34.07;;;20.20;;
24090;SDS011;12272;52.426;17.100;2023-02-28T08:32:31;41.03;;;22.30;;
24090;SDS011;12272;52.426;17.100;2023-02-28T08:37:35;31.60;;;20.27;;
24090;SDS011;12272;52.426;17.100;2023-02-28T08:42:37;32.03;;;18.60;;
24090;SDS011;12272;52.426;17.100;2023-02-28T08:47:40;32.00;;;20.47;;
24090;SDS011;12272;52.426;17.100;2023-02-28T08:52:43;29.77;;;18.10;;
24090;SDS011;12272;52.426;17.100;2023-02-28T08:57:46;29.40;;;16.63;;
24090;SDS011;12272;52.426;17.100;2023-02-28T09:02:49;32.17;;;20.10;;
24090;SDS011;12272;52.426;17.100;2023-02-28T09:07:51;34.30;;;19.90;;
24090;SDS011;12272;52.426;17.100;2023-02-28T09:12:54;34.33;;;19.33;;
24090;SDS011;12272;52.426;17.100;2023-02-28T09:17:56;31.37;;;18.47;;
24090;SDS011;12272;52.426;17.100;2023-02-28T09:22:59;30.33;;;20.63;;
24090;SDS011;12272;52.426;17.100;2023-02-28T09:28:02;30.17;;;20.77;;
24090;SDS011;12272;52.426;17.100;2023-02-28T09:33:05;29.93;;;19.03;;
24090;SDS011;12272;52.426;17.100;2023-02-28T09:38:07;25.83;;;16.13;;
24090;SDS011;12272;52.426;17.100;2023-02-28T09:43:10;25.50;;;16.37;;
24090;SDS011;12272;52.426;17.100;2023-02-28T09:48:17;27.67;;;17.40;;
24090;SDS011;12272;52.426;17.100;2023-02-28T09:53:28;30.93;;;19.37;;
24090;SDS011;12272;52.426;17.100;2023-02-28T10:09:17;21.70;;;14.53;;
24090;SDS011;12272;52.426;17.100;2023-02-28T10:14:26;23.40;;;14.80;;
24090;SDS011;12272;52.426;17.100;2023-02-28T10:19:38;19.47;;;14.03;;
24090;SDS011;12272;52.426;17.100;2023-02-28T10:24:58;22.37;;;13.83;;
24090;SDS011;12272;52.426;17.100;2023-02-28T10:30:09;23.07;;;13.67;;
24090;SDS011;12272;52.426;17.100;2023-02-28T10:35:19;20.70;;;14.37;;
24090;SDS011;12272;52.426;17.100;2023-02-28T10:45:29;19.50;;;12.30;;
24090;SDS011;12272;52.426;17.100;2023-02-28T10:55:59;22.17;;;12.77;;
24090;SDS011;12272;52.426;17.100;2023-02-28T11:01:10;19.80;;;12.93;;
24090;SDS011;12272;52.426;17.100;2023-02-28T11:06:21;19.47;;;13.30;;
24090;SDS011;12272;52.426;17.100;2023-02-28T11:11:28;23.43;;;13.50;;
24090;SDS011;12272;52.426;17.100;2023-02-28T11:16:34;16.43;;;10.47;;
24090;SDS011;12272;52.426;17.100;2023-02-28T11:21:38;16.27;;;11.70;;
24090;SDS011;12272;52.426;17.100;2023-02-28T11:26:55;14.37;;;9.40;;
24090;SDS011;12272;52.426;17.100;2023-02-28T11:37:14;22.67;;;10.33;;
24090;SDS011;12272;52.426;17.100;2023-02-28T11:52:58;11.37;;;7.67;;
24090;SDS011;12272;52.426;17.100;2023-02-28T12:03:49;15.83;;;7.97;;
24090;SDS011;12272;52.426;17.100;2023-02-28T12:09:25;17.50;;;8.40;;
24090;SDS011;12272;52.426;17.100;2023-02-28T12:15:05;13.27;;;7.80;;
24090;SDS011;12272;52.426;17.100;2023-02-28T12:20:25;10.30;;;7.83;;
24090;SDS011;12272;52.426;17.100;2023-02-28T12:31:06;13.30;;;7.87;;
24090;SDS011;12272;52.426;17.100;2023-02-28T12:36:38;12.47;;;7.60;;
24090;SDS011;12272;52.426;17.100;2023-02-28T12:47:05;14.47;;;7.17;;
24090;SDS011;12272;52.426;17.100;2023-02-28T12:52:17;10.70;;;6.70;;
24090;SDS011;12272;52.426;17.100;2023-02-28T12:57:51;11.93;;;8.67;;
24090;SDS011;12272;52.426;17.100;2023-02-28T13:03:11;12.60;;;7.27;;
24090;SDS011;12272;52.426;17.100;2023-02-28T13:14:28;10.83;;;7.50;;
24090;SDS011;12272;52.426;17.100;2023-02-28T13:19:41;12.50;;;8.37;;
24090;SDS011;12272;52.426;17.100;2023-02-28T13:57:20;11.23;;;7.73;;
24090;SDS011;12272;52.426;17.100;2023-02-28T14:07:48;12.67;;;8.83;;
24090;SDS011;12272;52.426;17.100;2023-02-28T14:13:02;13.97;;;8.83;;
24090;SDS011;12272;52.426;17.100;2023-02-28T14:18:18;15.10;;;7.87;;
24090;SDS011;12272;52.426;17.100;2023-02-28T14:29:11;11.73;;;6.53;;
24090;SDS011;12272;52.426;17.100;2023-02-28T14:39:48;10.30;;;6.67;;
24090;SDS011;12272;52.426;17.100;2023-02-28T14:44:55;13.37;;;7.40;;
24090;SDS011;12272;52.426;17.100;2023-02-28T14:49:59;13.10;;;6.93;;
24090;SDS011;12272;52.426;17.100;2023-02-28T14:55:04;10.83;;;7.60;;
24090;SDS011;12272;52.426;17.100;2023-02-28T15:00:16;9.83;;;5.87;;
24090;SDS011;12272;52.426;17.100;2023-02-28T15:10:31;10.37;;;6.70;;
24090;SDS011;12272;52.426;17.100;2023-02-28T15:15:45;11.23;;;6.33;;
24090;SDS011;12272;52.426;17.100;2023-02-28T15:21:05;8.93;;;6.47;;
24090;SDS011;12272;52.426;17.100;2023-02-28T15:26:16;11.83;;;7.47;;
24090;SDS011;12272;52.426;17.100;2023-02-28T15:31:24;7.90;;;6.13;;
24090;SDS011;12272;52.426;17.100;2023-02-28T15:36:34;7.40;;;5.30;;
24090;SDS011;12272;52.426;17.100;2023-02-28T15:41:39;13.90;;;9.27;;
24090;SDS011;12272;52.426;17.100;2023-02-28T15:46:43;15.50;;;8.23;;
24090;SDS011;12272;52.426;17.100;2023-02-28T15:51:57;15.77;;;9.63;;
24090;SDS011;12272;52.426;17.100;2023-02-28T15:57:03;13.87;;;8.00;;
24090;SDS011;12272;52.426;17.100;2023-02-28T16:02:14;23.00;;;10.57;;
24090;SDS011;12272;52.426;17.100;2023-02-28T16:07:19;16.97;;;9.33;;
24090;SDS011;12272;52.426;17.100;2023-02-28T16:12:24;27.97;;;14.33;;
24090;SDS011;12272;52.426;17.100;2023-02-28T16:17:31;18.17;;;9.20;;
24090;SDS011;12272;52.426;17.100;2023-02-28T16:22:36;18.80;;;9.63;;
24090;SDS011;12272;52.426;17.100;2023-02-28T16:27:38;19.77;;;9.83;;
24090;SDS011;12272;52.426;17.100;2023-02-28T16:32:42;27.23;;;11.23;;
24090;SDS011;12272;52.426;17.100;2023-02-28T16:37:45;23.57;;;12.60;;
24090;SDS011;12272;52.426;17.100;2023-02-28T16:42:49;29.10;;;13.17;;
24090;SDS011;12272;52.426;17.100;2023-02-28T16:47:54;42.97;;;18.67;;
24090;SDS011;12272;52.426;17.100;2023-02-28T16:52:58;46.47;;;26.37;;
24090;SDS011;12272;52.426;17.100;2023-02-28T16:58:00;36.73;;;23.60;;
24090;SDS011;12272;52.426;17.100;2023-02-28T17:03:04;40.97;;;24.43;;
24090;SDS011;12272;52.426;17.100;2023-02-28T17:08:08;47.53;;;25.20;;
24090;SDS011;12272;52.426;17.100;2023-02-28T17:13:11;43.23;;;23.40;;
24090;SDS011;12272;52.426;17.100;2023-02-28T17:18:17;42.97;;;24.53;;
24090;SDS011;12272;52.426;17.100;2023-02-28T17:23:21;61.67;;;32.97;;
24090;SDS011;12272;52.426;17.100;2023-02-28T17:28:24;52.37;;;28.60;;
24090;SDS011;12272;52.426;17.100;2023-02-28T17:33:27;230.13;;;94.93;;
24090;SDS011;12272;52.426;17.100;2023-02-28T17:38:29;299.20;;;130.97;;
24090;SDS011;12272;52.426;17.100;2023-02-28T17:43:32;288.30;;;129.27;;
24090;SDS011;12272;52.426;17.100;2023-02-28T17:48:34;47.63;;;26.13;;
24090;SDS011;12272;52.426;17.100;2023-02-28T17:53:37;31.93;;;16.83;;
24090;SDS011;12272;52.426;17.100;2023-02-28T17:58:40;18.40;;;12.33;;
24090;SDS011;12272;52.426;17.100;2023-02-28T18:03:43;23.63;;;14.53;;
24090;SDS011;12272;52.426;17.100;2023-02-28T18:08:45;27.00;;;14.57;;
24090;SDS011;12272;52.426;17.100;2023-02-28T18:13:50;24.33;;;13.87;;
24090;SDS011;12272;52.426;17.100;2023-02-28T18:18:54;21.07;;;12.67;;
24090;SDS011;12272;52.426;17.100;2023-02-28T18:23:57;22.07;;;14.43;;
24090;SDS011;12272;52.426;17.100;2023-02-28T18:28:59;26.80;;;15.70;;
24090;SDS011;12272;52.426;17.100;2023-02-28T18:34:02;76.47;;;41.10;;
24090;SDS011;12272;52.426;17.100;2023-02-28T18:39:05;84.13;;;44.60;;
24090;SDS011;12272;52.426;17.100;2023-02-28T18:44:08;80.43;;;40.50;;
24090;SDS011;12272;52.426;17.100;2023-02-28T18:49:20;62.33;;;32.50;;
24090;SDS011;12272;52.426;17.100;2023-02-28T18:54:22;65.90;;;32.43;;
24090;SDS011;12272;52.426;17.100;2023-02-28T18:59:25;62.37;;;31.03;;
24090;SDS011;12272;52.426;17.100;2023-02-28T19:04:28;74.27;;;37.87;;
24090;SDS011;12272;52.426;17.100;2023-02-28T19:09:30;106.03;;;49.67;;
24090;SDS011;12272;52.426;17.100;2023-02-28T19:14:33;135.90;;;63.60;;
24090;SDS011;12272;52.426;17.100;2023-02-28T19:19:36;118.40;;;58.10;;
24090;SDS011;12272;52.426;17.100;2023-02-28T19:24:38;134.43;;;64.60;;
24090;SDS011;12272;52.426;17.100;2023-02-28T19:29:41;196.07;;;91.03;;
24090;SDS011;12272;52.426;17.100;2023-02-28T19:34:44;170.57;;;82.77;;
24090;SDS011;12272;52.426;17.100;2023-02-28T19:39:47;181.23;;;92.07;;
24090;SDS011;12272;52.426;17.100;2023-02-28T19:44:49;162.80;;;83.60;;
24090;SDS011;12272;52.426;17.100;2023-02-28T19:49:52;169.20;;;78.33;;
24090;SDS011;12272;52.426;17.100;2023-02-28T19:54:55;140.47;;;69.87;;
24090;SDS011;12272;52.426;17.100;2023-02-28T19:59:58;157.90;;;77.37;;
24090;SDS011;12272;52.426;17.100;2023-02-28T20:05:01;188.63;;;86.07;;
24090;SDS011;12272;52.426;17.100;2023-02-28T20:10:03;184.87;;;85.87;;
24090;SDS011;12272;52.426;17.100;2023-02-28T20:15:07;178.97;;;88.33;;
24090;SDS011;12272;52.426;17.100;2023-02-28T20:20:09;141.27;;;70.70;;
24090;SDS011;12272;52.426;17.100;2023-02-28T20:25:12;149.13;;;74.17;;
24090;SDS011;12272;52.426;17.100;2023-02-28T20:30:15;146.77;;;75.00;;
24090;SDS011;12272;52.426;17.100;2023-02-28T20:35:18;131.03;;;61.87;;
24090;SDS011;12272;52.426;17.100;2023-02-28T20:40:21;151.50;;;73.00;;
24090;SDS011;12272;52.426;17.100;2023-02-28T20:45:23;132.70;;;63.70;;
24090;SDS011;12272;52.426;17.100;2023-02-28T20:50:26;138.17;;;64.73;;
24090;SDS011;12272;52.426;17.100;2023-02-28T20:55:28;135.50;;;69.53;;
24090;SDS011;12272;52.426;17.100;2023-02-28T21:00:31;149.83;;;76.93;;
24090;SDS011;12272;52.426;17.100;2023-02-28T21:05:33;206.40;;;92.17;;
24090;SDS011;12272;52.426;17.100;2023-02-28T21:10:36;204.30;;;92.40;;
24090;SDS011;12272;52.426;17.100;2023-02-28T21:15:40;188.23;;;88.57;;
24090;SDS011;12272;52.426;17.100;2023-02-28T21:20:42;191.37;;;94.60;;
24090;SDS011;12272;52.426;17.100;2023-02-28T21:25:45;164.13;;;78.37;;
24090;SDS011;12272;52.426;17.100;2023-02-28T21:30:48;137.10;;;68.90;;
24090;SDS011;12272;52.426;17.100;2023-02-28T21:35:50;147.10;;;75.13;;
24090;SDS011;12272;52.426;17.100;2023-02-28T21:40:53;198.53;;;92.00;;
24090;SDS011;12272;52.426;17.100;2023-02-28T21:45:59;212.57;;;95.50;;
24090;SDS011;12272;52.426;17.100;2023-02-28T21:51:10;199.47;;;96.23;;
24090;SDS011;12272;52.426;17.100;2023-02-28T21:56:22;192.67;;;97.53;;
24090;SDS011;12272;52.426;17.100;2023-02-28T22:01:47;186.57;;;91.77;;
24090;SDS011;12272;52.426;17.100;2023-02-28T22:06:52;162.80;;;81.17;;
24090;SDS011;12272;52.426;17.100;2023-02-28T22:11:58;168.30;;;85.73;;
24090;SDS011;12272;52.426;17.100;2023-02-28T22:17:00;150.03;;;76.07;;
24090;SDS011;12272;52.426;17.100;2023-02-28T22:22:03;162.13;;;83.63;;
24090;SDS011;12272;52.426;17.100;2023-02-28T22:27:06;191.43;;;93.17;;
24090;SDS011;12272;52.426;17.100;2023-02-28T22:32:08;146.10;;;74.10;;
24090;SDS011;12272;52.426;17.100;2023-02-28T22:37:12;154.50;;;75.60;;
24090;SDS011;12272;52.426;17.100;2023-02-28T22:42:15;136.53;;;66.53;;
24090;SDS011;12272;52.426;17.100;2023-02-28T22:47:17;171.87;;;87.30;;
24090;SDS011;12272;52.426;17.100;2023-02-28T22:52:20;141.07;;;74.40;;
24090;SDS011;12272;52.426;17.100;2023-02-28T22:57:22;155.80;;;78.43;;
24090;SDS011;12272;52.426;17.100;2023-02-28T23:02:25;181.30;;;90.97;;
24090;SDS011;12272;52.426;17.100;2023-02-28T23:07:27;156.00;;;77.27;;
24090;SDS011;12272;52.426;17.100;2023-02-28T23:12:30;150.27;;;80.17;;
24090;SDS011;12272;52.426;17.100;2023-02-28T23:17:33;179.73;;;88.60;;
24090;SDS011;12272;52.426;17.100;2023-02-28T23:22:35;158.20;;;84.10;;
24090;SDS011;12272;52.426;17.100;2023-02-28T23:27:38;169.47;;;83.67;;
24090;SDS011;12272;52.426;17.100;2023-02-28T23:32:41;162.67;;;84.00;;
24090;SDS011;12272;52.426;17.100;2023-02-28T23:37:44;152.90;;;72.20;;
24090;SDS011;12272;52.426;17.100;2023-02-28T23:42:46;153.00;;;80.33;;
24090;SDS011;12272;52.426;17.100;2023-02-28T23:47:50;153.60;;;79.13;;
24090;SDS011;12272;52.426;17.100;2023-02-28T23:52:52;174.60;;;85.80;;
24090;SDS011;12272;52.426;17.100;2023-02-28T23:57:55;164.30;;;84.83;;
